Time;durP1;ratioP1;P1;durP2;ratioP2;P2;SDS_P1;SDS_P2;PMS_P1;PMS_P2;Temp;Humidity;BMP_temperature;BMP_pressure;BME280_temperature;BME280_humidity;BME280_pressure;Samples;Min_cycle;Max_cycle;Signal;HPM_P1;HPM_P2
2022/09/16 00:00:42;;;;;;;;;;;;;;;16.65;100.00;98294.19;5071131;28;21288;-40
2022/09/16 00:03:07;;;;;;;;;;;;;;;16.96;100.00;98299.09;5072309;28;19927;-40
2022/09/16 00:05:32;;;;;;;;;;;;;;;17.85;100.00;98290.19;5070927;28;19920;-41
2022/09/16 00:07:57;;;;;;;;;;;;;;;18.04;100.00;98287.03;5071033;28;19924;-41
2022/09/16 00:10:23;;;;;;;;;;;;;;;17.77;100.00;98301.13;5069802;28;19927;-40
2022/09/16 00:12:48;;;;;;;;;;;;;;;17.94;100.00;98294.72;5053750;28;20491;-40
2022/09/16 00:15:14;;;;;;;;;;;;;;;18.48;100.00;98294.16;5069269;28;20491;-40
2022/09/16 00:17:39;;;;;;;;;;;;;;;18.74;100.00;98289.53;5069145;28;19927;-40
2022/09/16 00:20:05;;;;;;;;;;;;;;;18.88;100.00;98290.28;5069883;28;19920;-41
2022/09/16 00:22:30;;;;;;;;;;;;;;;18.45;100.00;98278.75;5071051;28;19920;-41
2022/09/16 00:24:55;;;;;;;;;;;;;;;18.40;100.00;98280.84;5069160;28;19916;-40
2022/09/16 00:27:20;;;;;;;;;;;;;;;17.75;100.00;98293.41;5069243;28;19928;-41
2022/09/16 00:29:46;;;;;;;;;;;;;;;18.26;100.00;98283.66;5069896;28;19922;-41
2022/09/16 00:32:11;;;;;;;;;;;;;;;17.93;100.00;98287.84;5052749;28;19916;-40
2022/09/16 00:34:36;;;;;;;;;;;;;;;17.97;100.00;98284.91;5070790;28;19959;-41
2022/09/16 00:37:02;;;;;;;;;;;;;;;17.96;100.00;98285.84;5070671;28;19966;-40
2022/09/16 00:39:28;;;;;;;;;;;;;;;18.47;100.00;98279.44;5070143;28;20009;-40
2022/09/16 00:41:53;;;;;;;;;;;;;;;18.41;100.00;98277.31;5070093;28;19920;-40
2022/09/16 00:44:37;;;;;;;;;;;;;;;18.49;100.00;98276.72;5070891;28;19927;-40
2022/09/16 00:47:02;;;;;;;;;;;;;;;18.87;100.00;98273.81;5069580;28;20219;-40
2022/09/16 00:49:28;;;;;;;;;;;;;;;18.12;100.00;98277.72;5052342;28;19924;-40
2022/09/16 00:51:54;;;;;;;;;;;;;;;18.11;100.00;98273.44;5052088;28;19924;-41
2022/09/16 00:54:19;;;;;;;;;;;;;;;17.69;100.00;98285.22;5070850;28;20034;-41
2022/09/16 00:56:45;;;;;;;;;;;;;;;18.10;100.00;98281.38;5068761;28;19945;-41
2022/09/16 00:59:16;;;;;;;;;;;;;;;17.98;100.00;98275.31;5051718;28;20389;-40
2022/09/16 01:01:43;;;;;;;;;;;;;;;18.41;100.00;98274.69;5044878;28;20044;-40
2022/09/16 01:04:19;;;;;;;;;;;;;;;18.30;100.00;98270.28;5071341;28;19927;-41
2022/09/16 01:06:44;;;;;;;;;;;;;;;18.66;100.00;98270.22;5052096;28;19923;-41
2022/09/16 01:09:10;;;;;;;;;;;;;;;17.83;100.00;98281.63;5053138;28;19946;-41
2022/09/16 01:11:35;;;;;;;;;;;;;;;17.51;100.00;98288.19;5047739;28;19931;-40
2022/09/16 01:14:52;;;;;;;;;;;;;;;17.26;100.00;98280.47;5071898;28;19927;-41
2022/09/16 01:17:04;;;;;;;;;;;;;;;17.06;100.00;98284.47;5070233;28;20018;-41
2022/09/16 01:19:53;;;;;;;;;;;;;;;17.78;100.00;98279.34;5071857;28;19927;-40
2022/09/16 01:22:37;;;;;;;;;;;;;;;17.46;100.00;98287.69;5056740;28;20027;-40
2022/09/16 01:25:05;;;;;;;;;;;;;;;17.56;100.00;98280.91;5057175;28;20404;-41
2022/09/16 01:27:41;;;;;;;;;;;;;;;17.35;100.00;98277.22;5073887;28;19969;-40
2022/09/16 01:30:12;;;;;;;;;;;;;;;17.72;100.00;98277.16;5057337;28;19920;-41
2022/09/16 01:32:37;;;;;;;;;;;;;;;17.53;100.00;98280.28;5076072;28;19927;-40
2022/09/16 01:35:23;;;;;;;;;;;;;;;18.05;100.00;98276.50;5076465;28;19916;-40
2022/09/16 01:37:48;;;;;;;;;;;;;;;17.14;100.00;98283.00;5073022;28;19920;-41
2022/09/16 01:40:22;;;;;;;;;;;;;;;17.71;100.00;98275.53;5077392;28;21161;-41
2022/09/16 01:42:47;;;;;;;;;;;;;;;17.92;100.00;98279.19;5074677;28;20499;-41
2022/09/16 01:45:17;;;;;;;;;;;;;;;17.33;100.00;98279.09;5076616;28;20038;-41
2022/09/16 01:47:49;;;;;;;;;;;;;;;17.87;100.00;98273.47;5054036;28;19931;-41
2022/09/16 01:50:17;;;;;;;;;;;;;;;18.34;100.00;98270.91;5075148;28;19919;-41
2022/09/16 01:52:48;;;;;;;;;;;;;;;18.60;100.00;98267.13;5075101;28;20933;-41
2022/09/16 01:55:25;;;;;;;;;;;;;;;18.03;100.00;98274.97;5057148;28;19977;-41
2022/09/16 01:58:13;;;;;;;;;;;;;;;17.28;100.00;98278.59;5057038;28;20411;-41
2022/09/16 02:00:39;;;;;;;;;;;;;;;17.95;100.00;98278.97;5062347;28;19924;-41
2022/09/16 02:03:09;;;;;;;;;;;;;;;17.92;100.00;98280.97;5056045;28;19919;-41
2022/09/16 02:05:36;;;;;;;;;;;;;;;17.86;100.00;98277.03;5054303;28;19919;-41
2022/09/16 02:08:03;;;;;;;;;;;;;;;17.82;100.00;98280.81;5056878;28;19981;-41
2022/09/16 02:10:30;;;;;;;;;;;;;;;17.72;100.00;98274.56;5054063;28;20412;-41
2022/09/16 02:12:57;;;;;;;;;;;;;;;17.71;100.00;98272.91;5055667;28;19920;-41
2022/09/16 02:15:23;;;;;;;;;;;;;;;17.29;100.00;98278.50;5055926;28;20008;-41
2022/09/16 02:18:09;;;;;;;;;;;;;;;16.82;100.00;98289.63;5055000;28;20006;-41
2022/09/16 02:20:34;;;;;;;;;;;;;;;17.43;100.00;98280.13;5072978;28;20026;-41
2022/09/16 02:23:02;;;;;;;;;;;;;;;17.37;100.00;98275.34;5038648;28;19923;-41
2022/09/16 02:25:28;;;;;;;;;;;;;;;16.29;100.00;98282.75;5056442;28;19946;-41
2022/09/16 02:27:53;;;;;;;;;;;;;;;17.20;100.00;98273.13;5055275;28;20384;-41
2022/09/16 02:30:19;;;;;;;;;;;;;;;17.20;100.00;98262.72;5072236;28;20457;-41
2022/09/16 02:32:45;;;;;;;;;;;;;;;16.87;100.00;98258.94;5056899;28;19930;-41
2022/09/16 02:35:11;;;;;;;;;;;;;;;17.02;100.00;98270.06;5055818;28;19923;-41
2022/09/16 02:37:41;;;;;;;;;;;;;;;17.48;100.00;98269.38;5055276;28;19920;-41
2022/09/16 02:40:10;;;;;;;;;;;;;;;17.24;100.00;98274.56;5054777;28;20292;-41
2022/09/16 02:42:35;;;;;;;;;;;;;;;17.17;100.00;98278.53;5054868;28;19934;-41
2022/09/16 02:45:00;;;;;;;;;;;;;;;17.11;100.00;98275.44;5074125;28;19924;-41
2022/09/16 02:47:34;;;;;;;;;;;;;;;16.82;100.00;98279.22;5073651;28;19978;-41
2022/09/16 02:50:03;;;;;;;;;;;;;;;17.23;100.00;98272.91;5055360;28;19920;-41
2022/09/16 02:52:54;;;;;;;;;;;;;;;17.32;100.00;98273.06;5072299;28;20004;-41
2022/09/16 02:55:38;;;;;;;;;;;;;;;16.48;100.00;98271.09;5070320;28;20015;-41
2022/09/16 02:58:04;;;;;;;;;;;;;;;17.23;100.00;98272.91;5074389;28;20331;-41
2022/09/16 03:00:30;;;;;;;;;;;;;;;17.45;100.00;98273.03;5055991;28;19920;-41
2022/09/16 03:02:55;;;;;;;;;;;;;;;17.32;100.00;98262.66;5053367;28;19973;-41
2022/09/16 03:05:25;;;;;;;;;;;;;;;17.12;100.00;98261.47;5071460;28;20336;-41
2022/09/16 03:07:51;;;;;;;;;;;;;;;17.56;100.00;98260.09;5074674;28;20408;-41
2022/09/16 03:10:16;;;;;;;;;;;;;;;17.19;100.00;98261.06;5074658;28;19920;-41
2022/09/16 03:12:41;;;;;;;;;;;;;;;17.32;100.00;98256.63;5072943;28;19931;-41
2022/09/16 03:15:22;;;;;;;;;;;;;;;17.05;100.00;98260.25;5072189;28;19920;-41
2022/09/16 03:18:02;;;;;;;;;;;;;;;17.50;100.00;98264.91;5066036;28;19947;-41
2022/09/16 03:20:37;;;;;;;;;;;;;;;17.49;100.00;98253.66;5040113;28;19920;-41
2022/09/16 03:23:16;;;;;;;;;;;;;;;17.40;100.00;98251.69;5055245;28;19920;-41
2022/09/16 03:26:00;;;;;;;;;;;;;;;17.47;100.00;98255.53;5055444;28;20438;-41
2022/09/16 03:28:43;;;;;;;;;;;;;;;17.72;100.00;98251.13;5072499;28;19931;-47
2022/09/16 03:31:16;;;;;;;;;;;;;;;17.25;100.00;98258.84;5073416;28;19916;-47
2022/09/16 03:34:02;;;;;;;;;;;;;;;17.68;100.00;98247.13;5073098;28;19976;-47
2022/09/16 03:36:29;;;;;;;;;;;;;;;17.77;100.00;98246.44;5058364;28;19919;-48
2022/09/16 03:38:55;;;;;;;;;;;;;;;17.75;100.00;98250.94;5055852;28;20478;-47
2022/09/16 03:41:20;;;;;;;;;;;;;;;17.16;100.00;98249.09;5053643;28;19955;-46
2022/09/16 03:43:52;;;;;;;;;;;;;;;17.46;100.00;98250.44;5054716;28;20103;-47
2022/09/16 03:46:17;;;;;;;;;;;;;;;17.11;100.00;98252.03;5052204;28;19924;-46
2022/09/16 03:48:42;;;;;;;;;;;;;;;17.70;100.00;98240.03;5073018;28;19920;-47
2022/09/16 03:51:08;;;;;;;;;;;;;;;17.55;100.00;98240.19;5073989;28;19919;-47
2022/09/16 03:53:33;;;;;;;;;;;;;;;17.39;100.00;98244.84;5069153;28;19919;-50
2022/09/16 03:55:58;;;;;;;;;;;;;;;17.25;100.00;98245.84;5071840;28;19916;-49
2022/09/16 03:58:23;;;;;;;;;;;;;;;17.71;100.00;98231.25;5072644;28;19945;-41
2022/09/16 04:00:49;;;;;;;;;;;;;;;17.72;100.00;98238.09;5073579;28;19920;-41
2022/09/16 04:03:15;;;;;;;;;;;;;;;17.63;100.00;98241.38;5072640;28;20239;-41
2022/09/16 04:05:40;;;;;;;;;;;;;;;17.31;100.00;98241.94;5028623;28;19920;-41
2022/09/16 04:08:05;;;;;;;;;;;;;;;17.29;100.00;98238.66;5073678;28;19924;-41
2022/09/16 04:10:30;;;;;;;;;;;;;;;17.61;100.00;98236.31;5070834;28;20002;-42
2022/09/16 04:12:57;;;;;;;;;;;;;;;17.30;100.00;98238.53;5071169;28;19924;-42
2022/09/16 04:15:22;;;;;;;;;;;;;;;17.26;100.00;98231.03;5071243;28;19931;-41
2022/09/16 04:17:47;;;;;;;;;;;;;;;17.88;100.00;98228.28;5053696;28;19920;-41
2022/09/16 04:20:13;;;;;;;;;;;;;;;17.76;100.00;98231.75;5072202;28;19920;-41
2022/09/16 04:22:38;;;;;;;;;;;;;;;18.06;100.00;98235.63;5070635;28;19974;-41
2022/09/16 04:25:04;;;;;;;;;;;;;;;17.76;100.00;98229.97;5069715;28;19920;-41
2022/09/16 04:27:29;;;;;;;;;;;;;;;18.00;100.00;98236.13;5072687;28;19926;-41
2022/09/16 04:29:55;;;;;;;;;;;;;;;18.00;100.00;98241.34;5072435;28;19927;-41
2022/09/16 04:32:20;;;;;;;;;;;;;;;17.64;100.00;98245.66;5070021;28;19920;-42
2022/09/16 04:34:45;;;;;;;;;;;;;;;17.74;100.00;98231.03;5070716;28;19927;-41
2022/09/16 04:37:10;;;;;;;;;;;;;;;17.90;100.00;98235.97;5071517;28;19927;-41
2022/09/16 04:39:36;;;;;;;;;;;;;;;17.53;100.00;98234.25;5071713;28;20411;-41
2022/09/16 04:42:01;;;;;;;;;;;;;;;17.46;100.00;98232.22;5072816;28;19982;-41
2022/09/16 04:44:29;;;;;;;;;;;;;;;17.49;100.00;98225.03;5065488;28;19927;-41
2022/09/16 04:46:54;;;;;;;;;;;;;;;16.90;100.00;98228.34;5072735;28;19920;-41
2022/09/16 04:49:19;;;;;;;;;;;;;;;17.28;100.00;98235.19;5072935;28;20273;-41
2022/09/16 04:51:44;;;;;;;;;;;;;;;16.93;100.00;98235.94;5070956;28;20310;-41
2022/09/16 04:54:11;;;;;;;;;;;;;;;17.42;100.00;98225.56;5071237;28;19916;-41
2022/09/16 04:56:36;;;;;;;;;;;;;;;17.03;100.00;98230.91;5053183;28;20319;-41
2022/09/16 04:59:02;;;;;;;;;;;;;;;17.65;100.00;98227.34;5054127;28;19969;-41
2022/09/16 05:01:31;;;;;;;;;;;;;;;17.34;100.00;98223.53;5070948;28;19947;-41
2022/09/16 05:03:58;;;;;;;;;;;;;;;16.81;100.00;98230.75;5069772;28;19967;-41
2022/09/16 05:06:24;;;;;;;;;;;;;;;16.97;100.00;98235.72;5068793;28;20269;-41
2022/09/16 05:08:49;;;;;;;;;;;;;;;15.81;100.00;98240.91;5071500;28;19985;-41
2022/09/16 05:11:18;;;;;;;;;;;;;;;16.57;100.00;98239.28;5071916;28;20373;-41
2022/09/16 05:13:44;;;;;;;;;;;;;;;17.05;100.00;98236.00;5070406;28;19916;-41
2022/09/16 05:16:10;;;;;;;;;;;;;;;17.08;100.00;98235.78;5071888;28;19927;-41
2022/09/16 05:18:36;;;;;;;;;;;;;;;17.02;100.00;98244.88;5060324;28;19924;-41
2022/09/16 05:21:01;;;;;;;;;;;;;;;17.01;100.00;98237.16;5068280;28;19954;-41
2022/09/16 05:23:27;;;;;;;;;;;;;;;17.13;100.00;98242.34;5070369;28;20752;-41
2022/09/16 05:25:52;;;;;;;;;;;;;;;16.95;100.00;98238.44;5071511;28;20452;-41
2022/09/16 05:28:17;;;;;;;;;;;;;;;17.07;100.00;98232.34;5071985;28;20050;-41
2022/09/16 05:30:43;;;;;;;;;;;;;;;17.32;100.00;98235.81;5072923;28;19947;-41
2022/09/16 05:33:08;;;;;;;;;;;;;;;17.55;100.00;98232.38;5053541;28;19955;-41
2022/09/16 05:35:33;;;;;;;;;;;;;;;16.96;100.00;98240.09;5070606;28;19963;-41
2022/09/16 05:37:58;;;;;;;;;;;;;;;17.19;100.00;98237.63;5072581;28;19920;-41
2022/09/16 05:40:26;;;;;;;;;;;;;;;16.45;100.00;98235.78;5072479;28;19959;-41
2022/09/16 05:42:51;;;;;;;;;;;;;;;17.09;100.00;98240.88;5070737;28;20452;-41
2022/09/16 05:45:16;;;;;;;;;;;;;;;17.17;100.00;98231.69;5071930;28;19915;-41
2022/09/16 05:47:45;;;;;;;;;;;;;;;17.02;100.00;98238.84;5072941;28;19924;-41
2022/09/16 05:50:11;;;;;;;;;;;;;;;17.25;100.00;98239.81;5073437;28;20420;-41
2022/09/16 05:52:36;;;;;;;;;;;;;;;16.37;100.00;98242.41;5071778;28;19926;-41
2022/09/16 05:55:01;;;;;;;;;;;;;;;17.14;100.00;98233.56;5073221;28;20377;-41
2022/09/16 05:57:26;;;;;;;;;;;;;;;16.91;100.00;98239.59;5072111;28;20403;-41
2022/09/16 05:59:52;;;;;;;;;;;;;;;16.82;100.00;98237.63;5071343;28;19920;-41
2022/09/16 06:02:17;;;;;;;;;;;;;;;16.99;100.00;98233.84;5071381;28;19994;-41
2022/09/16 06:04:42;;;;;;;;;;;;;;;16.95;100.00;98238.44;5071062;28;19923;-41
2022/09/16 06:07:07;;;;;;;;;;;;;;;16.80;100.00;98235.13;5075763;28;19926;-41
2022/09/16 06:09:33;;;;;;;;;;;;;;;17.11;100.00;98233.81;5075993;28;19923;-41
2022/09/16 06:11:58;;;;;;;;;;;;;;;16.20;100.00;98231.41;5055492;28;19920;-41
2022/09/16 06:14:23;;;;;;;;;;;;;;;16.78;100.00;98238.75;5067721;28;19920;-41
2022/09/16 06:16:49;;;;;;;;;;;;;;;17.13;100.00;98239.75;5076320;28;19916;-41
2022/09/16 06:19:16;;;;;;;;;;;;;;;17.17;100.00;98236.91;5076524;28;19916;-41
2022/09/16 06:21:42;;;;;;;;;;;;;;;16.79;100.00;98243.88;5074903;28;20357;-41
2022/09/16 06:24:07;;;;;;;;;;;;;;;16.45;100.00;98243.56;5077379;28;19963;-41
2022/09/16 06:26:33;;;;;;;;;;;;;;;16.66;100.00;98249.06;5074219;28;20011;-41
2022/09/16 06:28:58;;;;;;;;;;;;;;;16.65;100.00;98242.22;5076994;28;20007;-41
2022/09/16 06:31:24;;;;;;;;;;;;;;;16.51;100.00;98252.69;5074896;28;19923;-41
2022/09/16 06:33:50;;;;;;;;;;;;;;;15.87;100.00;98252.66;5076338;28;20003;-41
2022/09/16 06:36:17;;;;;;;;;;;;;;;16.45;100.00;98251.38;5074631;28;20310;-41
2022/09/16 06:38:42;;;;;;;;;;;;;;;16.40;100.00;98248.25;5075799;28;20582;-42
2022/09/16 06:41:08;;;;;;;;;;;;;;;16.72;100.00;98248.63;5075337;28;19927;-42
2022/09/16 06:43:34;;;;;;;;;;;;;;;16.65;100.00;98251.75;5074934;28;19916;-41
2022/09/16 06:46:01;;;;;;;;;;;;;;;15.99;100.00;98253.63;5075495;28;19947;-42
2022/09/16 06:48:26;;;;;;;;;;;;;;;16.38;100.00;98251.91;5075768;28;19982;-42
2022/09/16 06:50:58;;;;;;;;;;;;;;;16.18;100.00;98246.25;5056130;28;19924;-42
2022/09/16 06:53:24;;;;;;;;;;;;;;;16.56;100.00;98253.25;5066178;28;20021;-41
2022/09/16 06:55:49;;;;;;;;;;;;;;;16.16;100.00;98261.13;5075869;28;20042;-41
2022/09/16 06:58:14;;;;;;;;;;;;;;;16.00;100.00;98261.31;5076507;28;19927;-42
2022/09/16 07:00:40;;;;;;;;;;;;;;;15.98;100.00;98267.53;5074799;28;19927;-42
2022/09/16 07:03:05;;;;;;;;;;;;;;;16.18;100.00;98269.63;5076022;28;20015;-41
2022/09/16 07:05:31;;;;;;;;;;;;;;;16.89;100.00;98260.50;5075194;28;19943;-41
2022/09/16 07:07:56;;;;;;;;;;;;;;;16.52;100.00;98249.19;5075741;28;19920;-41
2022/09/16 07:10:22;;;;;;;;;;;;;;;17.26;100.00;98252.69;5056730;28;19981;-41
2022/09/16 07:12:48;;;;;;;;;;;;;;;16.31;100.00;98264.47;5075647;28;20399;-42
2022/09/16 07:15:13;;;;;;;;;;;;;;;16.05;100.00;98263.59;5062186;28;19919;-47
2022/09/16 07:17:38;;;;;;;;;;;;;;;16.09;100.00;98265.06;5075264;28;20603;-50
2022/09/16 07:20:04;;;;;;;;;;;;;;;15.77;100.00;98268.00;5075189;28;20003;-50
2022/09/16 07:22:31;;;;;;;;;;;;;;;15.95;100.00;98272.94;5075651;28;20479;-49
2022/09/16 07:24:56;;;;;;;;;;;;;;;15.73;100.00;98274.31;5074979;28;20274;-51
2022/09/16 07:27:21;;;;;;;;;;;;;;;15.73;100.00;98283.88;5074373;28;19985;-50
2022/09/16 07:29:46;;;;;;;;;;;;;;;16.64;100.00;98271.72;5075801;28;19916;-51
2022/09/16 07:32:11;;;;;;;;;;;;;;;17.72;100.00;98269.34;5074804;28;19916;-50
2022/09/16 07:34:37;;;;;;;;;;;;;;;17.14;100.00;98271.78;5074174;28;19927;-50
2022/09/16 07:37:02;;;;;;;;;;;;;;;17.34;100.00;98275.56;5073196;28;20882;-49
2022/09/16 07:39:27;;;;;;;;;;;;;;;16.55;100.00;98279.31;5052010;28;19920;-50
2022/09/16 07:41:52;;;;;;;;;;;;;;;17.22;100.00;98277.28;5053586;28;19927;-49
2022/09/16 07:44:18;;;;;;;;;;;;;;;17.59;100.00;98289.44;5053587;28;20378;-50
2022/09/16 07:46:43;;;;;;;;;;;;;;;17.46;100.00;98290.31;5072604;28;20928;-51
2022/09/16 07:49:10;;;;;;;;;;;;;;;17.67;100.00;98294.91;5073838;28;19922;-49
2022/09/16 07:51:35;;;;;;;;;;;;;;;17.13;100.00;98294.38;5073713;28;19924;-50
2022/09/16 07:54:03;;;;;;;;;;;;;;;16.93;100.00;98292.34;5074299;28;20704;-48
2022/09/16 07:56:28;;;;;;;;;;;;;;;16.68;100.00;98296.59;5023925;28;19955;-51
2022/09/16 07:58:54;;;;;;;;;;;;;;;17.05;100.00;98291.47;5073023;28;20026;-49
2022/09/16 08:01:19;;;;;;;;;;;;;;;16.95;100.00;98290.47;5073343;28;19927;-51
2022/09/16 08:03:45;;;;;;;;;;;;;;;17.14;100.00;98287.38;5073513;28;19951;-49
2022/09/16 08:06:14;;;;;;;;;;;;;;;16.42;100.00;98295.75;5072205;28;20415;-49
2022/09/16 08:08:39;;;;;;;;;;;;;;;15.72;100.00;98298.63;5073150;28;19920;-52
2022/09/16 08:11:05;;;;;;;;;;;;;;;16.13;100.00;98287.31;5073236;28;19961;-52
2022/09/16 08:13:31;;;;;;;;;;;;;;;16.35;100.00;98291.06;5074380;28;19916;-50
2022/09/16 08:16:01;;;;;;;;;;;;;;;16.02;100.00;98295.78;5054591;28;19916;-49
2022/09/16 08:18:26;;;;;;;;;;;;;;;16.53;100.00;98295.00;5073813;28;19985;-49
2022/09/16 08:20:51;;;;;;;;;;;;;;;16.20;100.00;98296.34;5071044;28;20672;-50
2022/09/16 08:23:17;;;;;;;;;;;;;;;17.00;100.00;98280.56;5074003;28;20677;-52
2022/09/16 08:25:45;;;;;;;;;;;;;;;16.96;100.00;98275.69;5072603;28;20429;-49
2022/09/16 08:28:14;;;;;;;;;;;;;;;17.03;100.00;98282.94;5072622;28;19927;-49
2022/09/16 08:30:40;;;;;;;;;;;;;;;17.33;100.00;98279.09;5067255;28;20361;-51
2022/09/16 08:33:05;;;;;;;;;;;;;;;17.77;100.00;98283.72;5069046;28;19927;-50
2022/09/16 08:35:30;;;;;;;;;;;;;;;17.95;100.00;98280.75;5072799;28;19955;-50
2022/09/16 08:37:56;;;;;;;;;;;;;;;17.35;100.00;98292.84;5073436;28;19923;-50
2022/09/16 08:40:22;;;;;;;;;;;;;;;17.93;100.00;98293.88;5071499;28;19924;-50
2022/09/16 08:43:11;;;;;;;;;;;;;;;17.18;100.00;98294.03;5054343;28;20632;-49
2022/09/16 08:45:39;;;;;;;;;;;;;;;17.34;100.00;98304.22;5061884;28;20038;-49
2022/09/16 08:48:10;;;;;;;;;;;;;;;18.39;100.00;98285.22;5073232;28;20022;-49
2022/09/16 08:50:43;;;;;;;;;;;;;;;18.16;100.00;98291.34;5072639;28;19920;-51
2022/09/16 08:53:28;;;;;;;;;;;;;;;18.45;100.00;98298.75;5054833;28;19916;-49
2022/09/16 08:55:53;;;;;;;;;;;;;;;18.17;100.00;98295.59;5071512;28;20304;-52
2022/09/16 08:58:20;;;;;;;;;;;;;;;17.86;100.00;98295.28;5054985;28;19916;-52
2022/09/16 09:00:46;;;;;;;;;;;;;;;18.03;100.00;98299.25;5054981;28;20358;-48
2022/09/16 09:03:31;;;;;;;;;;;;;;;18.32;100.00;98299.69;5055652;28;20258;-48
2022/09/16 09:05:57;;;;;;;;;;;;;;;17.97;100.00;98299.69;5072236;28;19912;-50
2022/09/16 09:08:31;;;;;;;;;;;;;;;18.23;100.00;98292.56;5041214;28;20221;-50
2022/09/16 09:11:09;;;;;;;;;;;;;;;17.10;100.00;98312.78;5054492;28;19920;-49
2022/09/16 09:13:44;;;;;;;;;;;;;;;16.87;100.00;98305.75;5054968;28;19920;-48
2022/09/16 09:16:22;;;;;;;;;;;;;;;17.23;100.00;98306.72;5072685;28;19916;-48
2022/09/16 09:18:59;;;;;;;;;;;;;;;17.93;100.00;98306.09;5051243;28;20296;-50
2022/09/16 09:21:43;;;;;;;;;;;;;;;18.08;100.00;98296.28;5073989;28;19916;-48
2022/09/16 09:24:27;;;;;;;;;;;;;;;17.52;100.00;98300.28;5072957;28;19926;-50
2022/09/16 09:27:12;;;;;;;;;;;;;;;18.39;100.00;98295.66;5072091;28;19920;-49
2022/09/16 09:29:41;;;;;;;;;;;;;;;18.29;100.00;98294.72;5070418;28;19965;-48
2022/09/16 09:32:35;;;;;;;;;;;;;;;18.76;100.00;98294.63;5073403;28;19922;-50
2022/09/16 09:35:03;;;;;;;;;;;;;;;17.87;100.00;98299.53;5050899;28;19923;-48
2022/09/16 09:37:28;;;;;;;;;;;;;;;18.81;100.00;98298.56;5072367;28;19928;-49
2022/09/16 09:40:08;;;;;;;;;;;;;;;19.01;100.00;98291.00;5072700;28;19950;-47
2022/09/16 09:42:38;;;;;;;;;;;;;;;20.00;100.00;98274.38;5077209;28;19916;-50
2022/09/16 09:45:04;;;;;;;;;;;;;;;19.48;100.00;98281.19;5057585;28;20446;-48
2022/09/16 09:47:34;;;;;;;;;;;;;;;19.06;100.00;98282.81;5056805;28;20530;-49
2022/09/16 09:50:10;;;;;;;;;;;;;;;19.69;100.00;98277.84;5057337;28;21118;-47
2022/09/16 09:52:38;;;;;;;;;;;;;;;19.09;100.00;98278.19;5057801;28;19928;-48
2022/09/16 09:55:12;;;;;;;;;;;;;;;18.71;100.00;98279.34;5058910;28;20428;-47
2022/09/16 09:57:42;;;;;;;;;;;;;;;19.79;100.00;98257.84;5075895;28;20391;-50
2022/09/16 10:00:11;;;;;;;;;;;;;;;19.16;100.00;98266.31;5058083;28;19931;-49
2022/09/16 10:02:40;;;;;;;;;;;;;;;19.63;100.00;98266.06;5076372;28;19920;-47
2022/09/16 10:05:06;;;;;;;;;;;;;;;19.49;100.00;98259.34;5076021;28;19981;-47
2022/09/16 10:07:32;;;;;;;;;;;;;;;20.17;100.00;98259.06;5075886;28;19928;-51
2022/09/16 10:09:58;;;;;;;;;;;;;;;21.30;100.00;98254.63;5057342;28;19920;-49
2022/09/16 10:12:31;;;;;;;;;;;;;;;21.27;100.00;98244.38;5057939;28;19916;-47
2022/09/16 10:14:56;;;;;;;;;;;;;;;21.56;100.00;98237.56;5076335;28;19915;-47
2022/09/16 10:17:21;;;;;;;;;;;;;;;19.40;100.00;98254.84;5057239;28;19920;-47
2022/09/16 10:19:49;;;;;;;;;;;;;;;18.02;100.00;98271.53;5057746;28;19942;-49
2022/09/16 10:22:23;;;;;;;;;;;;;;;17.79;100.00;98260.19;5075345;28;20013;-49
2022/09/16 10:24:56;;;;;;;;;;;;;;;18.23;100.00;98266.50;5046231;28;19958;-50
2022/09/16 10:27:21;;;;;;;;;;;;;;;18.18;100.00;98258.19;5075567;28;19965;-48
2022/09/16 10:29:47;;;;;;;;;;;;;;;18.31;100.00;98261.50;5075276;28;19916;-47
2022/09/16 10:32:16;;;;;;;;;;;;;;;18.43;100.00;98258.91;5076176;28;20356;-47
2022/09/16 10:34:41;;;;;;;;;;;;;;;18.52;100.00;98253.00;5075887;28;20446;-48
2022/09/16 10:37:10;;;;;;;;;;;;;;;19.55;100.00;98248.41;5075279;28;19962;-47
2022/09/16 10:39:36;;;;;;;;;;;;;;;18.45;100.00;98254.44;5066387;28;19935;-47
2022/09/16 10:42:01;;;;;;;;;;;;;;;18.98;100.00;98249.50;5075867;28;19920;-47
2022/09/16 10:44:30;;;;;;;;;;;;;;;19.18;100.00;98240.06;5053548;28;20423;-48
2022/09/16 10:47:05;;;;;;;;;;;;;;;18.49;100.00;98233.22;5075281;28;19916;-47
2022/09/16 10:49:37;;;;;;;;;;;;;;;18.10;100.00;98242.28;5074377;28;19920;-46
2022/09/16 10:52:06;;;;;;;;;;;;;;;17.54;100.00;98240.31;5056137;28;20420;-46
2022/09/16 10:54:32;;;;;;;;;;;;;;;19.33;100.00;98238.03;5056976;28;19920;-47
2022/09/16 10:56:57;;;;;;;;;;;;;;;19.95;100.00;98221.63;5074763;28;19939;-47
2022/09/16 10:59:22;;;;;;;;;;;;;;;19.95;100.00;98226.88;5056664;28;20269;-48
2022/09/16 11:02:03;;;;;;;;;;;;;;;19.63;100.00;98219.03;5075266;28;20721;-48
2022/09/16 11:04:45;;;;;;;;;;;;;;;20.36;100.00;98225.19;5074424;28;19927;-48
2022/09/16 11:07:17;;;;;;;;;;;;;;;21.34;100.00;98217.66;5057259;28;19927;-49
2022/09/16 11:09:45;;;;;;;;;;;;;;;21.39;100.00;98225.94;5075209;28;20186;-48
2022/09/16 11:12:19;;;;;;;;;;;;;;;21.35;98.01;98225.41;5073804;28;19959;-50
2022/09/16 11:14:56;;;;;;;;;;;;;;;21.33;98.29;98223.88;5075395;28;19920;-46
2022/09/16 11:17:31;;;;;;;;;;;;;;;20.77;96.28;98226.06;5055766;28;20015;-48
2022/09/16 11:20:20;;;;;;;;;;;;;;;20.12;98.24;98222.03;5074887;28;19927;-50
2022/09/16 11:22:52;;;;;;;;;;;;;;;19.60;99.85;98230.56;5056491;28;19920;-49
2022/09/16 11:25:20;;;;;;;;;;;;;;;19.28;96.02;98217.50;5075007;28;19924;-48
2022/09/16 11:27:55;;;;;;;;;;;;;;;18.84;100.00;98234.06;5074888;28;20019;-49
2022/09/16 11:30:21;;;;;;;;;;;;;;;18.59;100.00;98241.19;5075125;28;19916;-49
2022/09/16 11:33:02;;;;;;;;;;;;;;;15.79;100.00;98292.09;5056331;28;19989;-51
2022/09/16 11:35:31;;;;;;;;;;;;;;;16.38;100.00;98296.06;5073955;28;19931;-49
2022/09/16 11:37:56;;;;;;;;;;;;;;;16.27;100.00;98301.97;5073369;28;19920;-53
2022/09/16 11:40:21;;;;;;;;;;;;;;;16.76;100.00;98296.03;5074757;28;19973;-50
2022/09/16 11:42:55;;;;;;;;;;;;;;;16.43;100.00;98296.59;5075572;28;19978;-50
2022/09/16 11:45:39;;;;;;;;;;;;;;;17.01;100.00;98289.19;5074150;28;19916;-52
2022/09/16 11:48:23;;;;;;;;;;;;;;;17.28;100.00;98286.41;5061827;28;20322;-50
2022/09/16 11:50:55;;;;;;;;;;;;;;;17.96;100.00;98278.00;5066717;28;19930;-50
2022/09/16 11:53:39;;;;;;;;;;;;;;;19.21;100.00;98269.38;5049667;28;20031;-51
2022/09/16 11:56:10;;;;;;;;;;;;;;;18.85;100.00;98265.25;5067490;28;20024;-48
2022/09/16 11:58:37;;;;;;;;;;;;;;;17.77;100.00;98272.47;5055091;28;19921;-52
2022/09/16 12:01:15;;;;;;;;;;;;;;;18.56;100.00;98254.44;5054987;28;19935;-52
2022/09/16 12:03:42;;;;;;;;;;;;;;;18.50;100.00;98255.75;5073308;28;19973;-53
2022/09/16 12:06:10;;;;;;;;;;;;;;;19.77;100.00;98241.44;5055371;28;20296;-52
2022/09/16 12:08:41;;;;;;;;;;;;;;;19.68;100.00;98247.41;5074756;28;19935;-53
2022/09/16 12:11:06;;;;;;;;;;;;;;;19.97;100.00;98242.44;5074588;28;20348;-52
2022/09/16 12:13:38;;;;;;;;;;;;;;;19.60;100.00;98245.41;5063747;28;19935;-51
2022/09/16 12:16:17;;;;;;;;;;;;;;;19.83;100.00;98236.56;5071549;28;19942;-51
2022/09/16 12:18:43;;;;;;;;;;;;;;;20.65;100.00;98237.59;5073136;28;20054;-51
2022/09/16 12:21:08;;;;;;;;;;;;;;;20.52;100.00;98232.56;5074018;28;20011;-52
2022/09/16 12:23:35;;;;;;;;;;;;;;;19.73;100.00;98235.66;5073913;28;19976;-51
2022/09/16 12:26:04;;;;;;;;;;;;;;;18.73;100.00;98250.53;5053832;28;19920;-50
2022/09/16 12:28:53;;;;;;;;;;;;;;;17.53;100.00;98244.66;5072410;28;19926;-51
2022/09/16 12:31:22;;;;;;;;;;;;;;;17.22;100.00;98253.00;5065729;28;19916;-52
2022/09/16 12:33:51;;;;;;;;;;;;;;;17.65;100.00;98257.72;5057338;28;19927;-52
2022/09/16 12:36:21;;;;;;;;;;;;;;;18.53;100.00;98265.09;5053356;28;19942;-49
2022/09/16 12:38:47;;;;;;;;;;;;;;;17.74;100.00;98270.94;5073576;28;20342;-51
2022/09/16 12:41:29;;;;;;;;;;;;;;;18.75;100.00;98275.56;5069605;28;19920;-52
2022/09/16 12:44:17;;;;;;;;;;;;;;;18.27;100.00;98283.56;5070732;28;19919;-50
2022/09/16 12:46:43;;;;;;;;;;;;;;;18.28;100.00;98271.34;5062181;28;19991;-50